sensor_id;sensor_type;location;lat;lon;timestamp;P1;durP1;ratioP1;P2;durP2;ratioP2
77625;SDS011;66794;43.764;10.436;2023-02-14T00:01:23;66.10;;;42.22;;
77625;SDS011;66794;43.764;10.436;2023-02-14T00:03:48;65.88;;;43.28;;
77625;SDS011;66794;43.764;10.436;2023-02-14T00:06:14;63.63;;;40.78;;
77625;SDS011;66794;43.764;10.436;2023-02-14T00:08:40;61.30;;;39.85;;
77625;SDS011;66794;43.764;10.436;2023-02-14T00:11:08;58.53;;;40.47;;
77625;SDS011;66794;43.764;10.436;2023-02-14T00:13:34;47.83;;;32.67;;
77625;SDS011;66794;43.764;10.436;2023-02-14T00:16:00;47.83;;;32.05;;
77625;SDS011;66794;43.764;10.436;2023-02-14T00:18:27;48.00;;;31.30;;
77625;SDS011;66794;43.764;10.436;2023-02-14T00:21:12;49.42;;;32.42;;
77625;SDS011;66794;43.764;10.436;2023-02-14T00:23:38;53.72;;;36.55;;
77625;SDS011;66794;43.764;10.436;2023-02-14T00:26:03;60.25;;;38.97;;
77625;SDS011;66794;43.764;10.436;2023-02-14T00:28:29;54.92;;;36.60;;
77625;SDS011;66794;43.764;10.436;2023-02-14T00:30:59;52.85;;;36.60;;
77625;SDS011;66794;43.764;10.436;2023-02-14T00:33:25;52.20;;;36.35;;
77625;SDS011;66794;43.764;10.436;2023-02-14T00:35:51;51.08;;;34.65;;
77625;SDS011;66794;43.764;10.436;2023-02-14T00:38:16;48.58;;;34.22;;
77625;SDS011;66794;43.764;10.436;2023-02-14T00:40:42;55.42;;;35.72;;
77625;SDS011;66794;43.764;10.436;2023-02-14T00:43:07;52.88;;;35.00;;
77625;SDS011;66794;43.764;10.436;2023-02-14T00:45:32;51.38;;;36.05;;
77625;SDS011;66794;43.764;10.436;2023-02-14T00:47:58;53.00;;;34.90;;
77625;SDS011;66794;43.764;10.436;2023-02-14T00:50:23;55.00;;;37.00;;
77625;SDS011;66794;43.764;10.436;2023-02-14T00:52:49;54.72;;;38.03;;
77625;SDS011;66794;43.764;10.436;2023-02-14T00:55:14;56.65;;;36.83;;
77625;SDS011;66794;43.764;10.436;2023-02-14T00:57:39;53.60;;;36.17;;
77625;SDS011;66794;43.764;10.436;2023-02-14T01:00:05;79.43;;;55.10;;
77625;SDS011;66794;43.764;10.436;2023-02-14T01:02:31;61.70;;;42.03;;
77625;SDS011;66794;43.764;10.436;2023-02-14T01:04:56;67.38;;;47.30;;
77625;SDS011;66794;43.764;10.436;2023-02-14T01:07:22;59.40;;;39.63;;
77625;SDS011;66794;43.764;10.436;2023-02-14T01:09:47;55.35;;;38.35;;
77625;SDS011;66794;43.764;10.436;2023-02-14T01:12:13;49.40;;;35.00;;
77625;SDS011;66794;43.764;10.436;2023-02-14T01:14:38;54.15;;;35.22;;
77625;SDS011;66794;43.764;10.436;2023-02-14T01:17:04;53.88;;;35.05;;
77625;SDS011;66794;43.764;10.436;2023-02-14T01:19:29;53.55;;;34.88;;
77625;SDS011;66794;43.764;10.436;2023-02-14T01:21:54;54.65;;;35.90;;
77625;SDS011;66794;43.764;10.436;2023-02-14T01:24:20;51.47;;;34.17;;
77625;SDS011;66794;43.764;10.436;2023-02-14T01:26:45;49.63;;;33.72;;
77625;SDS011;66794;43.764;10.436;2023-02-14T01:29:11;57.65;;;35.15;;
77625;SDS011;66794;43.764;10.436;2023-02-14T01:31:36;50.88;;;34.63;;
77625;SDS011;66794;43.764;10.436;2023-02-14T01:34:02;59.10;;;36.85;;
77625;SDS011;66794;43.764;10.436;2023-02-14T01:36:32;49.53;;;33.30;;
77625;SDS011;66794;43.764;10.436;2023-02-14T01:39:05;51.15;;;34.40;;
77625;SDS011;66794;43.764;10.436;2023-02-14T01:41:36;46.03;;;33.05;;
77625;SDS011;66794;43.764;10.436;2023-02-14T01:44:04;47.08;;;32.80;;
77625;SDS011;66794;43.764;10.436;2023-02-14T01:46:33;49.47;;;34.80;;
77625;SDS011;66794;43.764;10.436;2023-02-14T01:49:02;47.42;;;32.17;;
77625;SDS011;66794;43.764;10.436;2023-02-14T01:51:34;43.90;;;30.83;;
77625;SDS011;66794;43.764;10.436;2023-02-14T01:54:02;48.45;;;32.65;;
77625;SDS011;66794;43.764;10.436;2023-02-14T01:56:33;47.35;;;32.70;;
77625;SDS011;66794;43.764;10.436;2023-02-14T01:59:02;49.10;;;32.38;;
77625;SDS011;66794;43.764;10.436;2023-02-14T02:01:31;47.53;;;33.47;;
77625;SDS011;66794;43.764;10.436;2023-02-14T02:03:58;51.15;;;33.33;;
77625;SDS011;66794;43.764;10.436;2023-02-14T02:06:39;47.38;;;34.13;;
77625;SDS011;66794;43.764;10.436;2023-02-14T02:09:17;47.08;;;33.53;;
77625;SDS011;66794;43.764;10.436;2023-02-14T02:11:49;50.83;;;32.50;;
77625;SDS011;66794;43.764;10.436;2023-02-14T02:14:16;47.47;;;34.05;;
77625;SDS011;66794;43.764;10.436;2023-02-14T02:32:45;45.97;;;32.42;;
77625;SDS011;66794;43.764;10.436;2023-02-14T02:35:29;45.15;;;31.35;;
77625;SDS011;66794;43.764;10.436;2023-02-14T02:40:40;49.85;;;32.75;;
77625;SDS011;66794;43.764;10.436;2023-02-14T02:43:23;50.33;;;33.85;;
77625;SDS011;66794;43.764;10.436;2023-02-14T02:48:36;62.20;;;37.90;;
77625;SDS011;66794;43.764;10.436;2023-02-14T02:51:09;78.28;;;41.00;;
77625;SDS011;66794;43.764;10.436;2023-02-14T02:54:04;60.65;;;37.50;;
77625;SDS011;66794;43.764;10.436;2023-02-14T02:56:34;57.80;;;36.17;;
77625;SDS011;66794;43.764;10.436;2023-02-14T03:04:48;60.20;;;37.25;;
77625;SDS011;66794;43.764;10.436;2023-02-14T03:10:19;56.97;;;36.97;;
77625;SDS011;66794;43.764;10.436;2023-02-14T03:13:36;59.67;;;36.55;;
77625;SDS011;66794;43.764;10.436;2023-02-14T03:23:26;49.65;;;33.40;;
77625;SDS011;66794;43.764;10.436;2023-02-14T03:28:44;60.72;;;39.05;;
77625;SDS011;66794;43.764;10.436;2023-02-14T03:31:19;49.17;;;32.20;;
77625;SDS011;66794;43.764;10.436;2023-02-14T03:33:55;45.85;;;29.88;;
77625;SDS011;66794;43.764;10.436;2023-02-14T03:36:28;49.58;;;30.83;;
77625;SDS011;66794;43.764;10.436;2023-02-14T03:39:30;43.67;;;29.42;;
77625;SDS011;66794;43.764;10.436;2023-02-14T03:42:19;50.95;;;33.65;;
77625;SDS011;66794;43.764;10.436;2023-02-14T03:45:06;45.90;;;30.63;;
77625;SDS011;66794;43.764;10.436;2023-02-14T03:47:35;57.03;;;35.78;;
77625;SDS011;66794;43.764;10.436;2023-02-14T03:50:06;49.47;;;31.92;;
77625;SDS011;66794;43.764;10.436;2023-02-14T03:52:34;67.00;;;42.58;;
77625;SDS011;66794;43.764;10.436;2023-02-14T03:55:02;58.38;;;37.80;;
77625;SDS011;66794;43.764;10.436;2023-02-14T03:57:36;47.60;;;34.20;;
77625;SDS011;66794;43.764;10.436;2023-02-14T04:00:07;65.47;;;43.45;;
77625;SDS011;66794;43.764;10.436;2023-02-14T04:02:35;56.50;;;37.80;;
77625;SDS011;66794;43.764;10.436;2023-02-14T04:05:05;54.10;;;35.92;;
77625;SDS011;66794;43.764;10.436;2023-02-14T04:07:48;60.15;;;39.95;;
77625;SDS011;66794;43.764;10.436;2023-02-14T04:10:15;59.53;;;40.13;;
77625;SDS011;66794;43.764;10.436;2023-02-14T04:12:41;50.97;;;35.17;;
77625;SDS011;66794;43.764;10.436;2023-02-14T04:15:07;46.25;;;33.53;;
77625;SDS011;66794;43.764;10.436;2023-02-14T04:17:33;51.33;;;35.00;;
77625;SDS011;66794;43.764;10.436;2023-02-14T04:20:17;53.20;;;33.60;;
77625;SDS011;66794;43.764;10.436;2023-02-14T04:22:43;55.88;;;36.63;;
77625;SDS011;66794;43.764;10.436;2023-02-14T04:25:10;49.70;;;33.25;;
77625;SDS011;66794;43.764;10.436;2023-02-14T04:27:36;51.83;;;34.13;;
77625;SDS011;66794;43.764;10.436;2023-02-14T04:30:01;50.85;;;33.90;;
77625;SDS011;66794;43.764;10.436;2023-02-14T04:32:27;58.13;;;36.53;;
77625;SDS011;66794;43.764;10.436;2023-02-14T04:34:53;54.17;;;36.53;;
77625;SDS011;66794;43.764;10.436;2023-02-14T04:37:18;59.70;;;39.95;;
77625;SDS011;66794;43.764;10.436;2023-02-14T04:39:44;59.15;;;40.92;;
77625;SDS011;66794;43.764;10.436;2023-02-14T04:42:09;61.58;;;39.85;;
77625;SDS011;66794;43.764;10.436;2023-02-14T04:44:36;63.45;;;39.95;;
77625;SDS011;66794;43.764;10.436;2023-02-14T04:47:04;58.53;;;39.72;;
77625;SDS011;66794;43.764;10.436;2023-02-14T04:49:30;60.33;;;40.15;;
77625;SDS011;66794;43.764;10.436;2023-02-14T04:51:56;60.67;;;39.30;;
77625;SDS011;66794;43.764;10.436;2023-02-14T04:54:22;55.28;;;39.47;;
77625;SDS011;66794;43.764;10.436;2023-02-14T04:56:47;57.20;;;38.65;;
77625;SDS011;66794;43.764;10.436;2023-02-14T04:59:13;53.45;;;37.15;;
77625;SDS011;66794;43.764;10.436;2023-02-14T05:01:39;60.97;;;41.25;;
77625;SDS011;66794;43.764;10.436;2023-02-14T05:04:04;62.28;;;42.47;;
77625;SDS011;66794;43.764;10.436;2023-02-14T05:06:30;59.08;;;39.30;;
77625;SDS011;66794;43.764;10.436;2023-02-14T05:08:57;55.67;;;36.63;;
77625;SDS011;66794;43.764;10.436;2023-02-14T05:11:22;58.90;;;40.78;;
77625;SDS011;66794;43.764;10.436;2023-02-14T05:13:48;61.42;;;41.72;;
77625;SDS011;66794;43.764;10.436;2023-02-14T05:16:13;68.97;;;45.05;;
77625;SDS011;66794;43.764;10.436;2023-02-14T05:18:39;63.08;;;42.00;;
77625;SDS011;66794;43.764;10.436;2023-02-14T05:21:04;62.60;;;42.67;;
77625;SDS011;66794;43.764;10.436;2023-02-14T05:23:30;62.80;;;41.78;;
77625;SDS011;66794;43.764;10.436;2023-02-14T05:25:55;62.47;;;40.92;;
77625;SDS011;66794;43.764;10.436;2023-02-14T05:28:21;59.70;;;41.13;;
77625;SDS011;66794;43.764;10.436;2023-02-14T05:30:46;63.08;;;42.35;;
77625;SDS011;66794;43.764;10.436;2023-02-14T05:33:11;63.17;;;40.35;;
77625;SDS011;66794;43.764;10.436;2023-02-14T05:35:37;63.05;;;42.13;;
77625;SDS011;66794;43.764;10.436;2023-02-14T05:38:03;67.00;;;44.03;;
77625;SDS011;66794;43.764;10.436;2023-02-14T05:40:28;64.43;;;42.22;;
77625;SDS011;66794;43.764;10.436;2023-02-14T05:42:54;62.00;;;40.47;;
77625;SDS011;66794;43.764;10.436;2023-02-14T05:45:20;66.65;;;41.70;;
77625;SDS011;66794;43.764;10.436;2023-02-14T05:47:47;62.85;;;41.42;;
77625;SDS011;66794;43.764;10.436;2023-02-14T05:50:13;63.72;;;41.22;;
77625;SDS011;66794;43.764;10.436;2023-02-14T05:52:39;65.60;;;43.65;;
77625;SDS011;66794;43.764;10.436;2023-02-14T05:55:05;66.10;;;42.47;;
77625;SDS011;66794;43.764;10.436;2023-02-14T05:57:31;63.85;;;41.97;;
77625;SDS011;66794;43.764;10.436;2023-02-14T05:59:57;62.97;;;41.72;;
77625;SDS011;66794;43.764;10.436;2023-02-14T06:02:22;61.70;;;40.40;;
77625;SDS011;66794;43.764;10.436;2023-02-14T06:04:48;51.75;;;36.30;;
77625;SDS011;66794;43.764;10.436;2023-02-14T06:07:13;52.30;;;34.17;;
77625;SDS011;66794;43.764;10.436;2023-02-14T06:09:39;53.88;;;36.50;;
77625;SDS011;66794;43.764;10.436;2023-02-14T06:12:04;64.30;;;39.60;;
77625;SDS011;66794;43.764;10.436;2023-02-14T06:14:30;58.50;;;38.92;;
77625;SDS011;66794;43.764;10.436;2023-02-14T06:16:55;63.55;;;42.25;;
77625;SDS011;66794;43.764;10.436;2023-02-14T06:19:21;60.50;;;41.30;;
77625;SDS011;66794;43.764;10.436;2023-02-14T06:21:46;58.67;;;39.67;;
77625;SDS011;66794;43.764;10.436;2023-02-14T06:24:11;51.20;;;35.80;;
77625;SDS011;66794;43.764;10.436;2023-02-14T06:26:37;61.78;;;37.40;;
77625;SDS011;66794;43.764;10.436;2023-02-14T06:29:03;61.20;;;40.03;;
77625;SDS011;66794;43.764;10.436;2023-02-14T06:31:28;65.43;;;40.55;;
77625;SDS011;66794;43.764;10.436;2023-02-14T06:33:54;59.65;;;39.60;;
77625;SDS011;66794;43.764;10.436;2023-02-14T06:36:20;66.22;;;41.60;;
77625;SDS011;66794;43.764;10.436;2023-02-14T06:38:46;67.50;;;44.55;;
77625;SDS011;66794;43.764;10.436;2023-02-14T06:41:12;63.85;;;43.17;;
77625;SDS011;66794;43.764;10.436;2023-02-14T06:43:41;64.65;;;42.33;;
77625;SDS011;66794;43.764;10.436;2023-02-14T06:46:07;64.30;;;41.95;;
77625;SDS011;66794;43.764;10.436;2023-02-14T06:48:33;67.15;;;42.58;;
77625;SDS011;66794;43.764;10.436;2023-02-14T06:50:58;71.43;;;43.28;;
77625;SDS011;66794;43.764;10.436;2023-02-14T06:53:24;95.85;;;56.58;;
77625;SDS011;66794;43.764;10.436;2023-02-14T06:55:49;72.07;;;45.55;;
77625;SDS011;66794;43.764;10.436;2023-02-14T06:58:15;59.63;;;38.97;;
77625;SDS011;66794;43.764;10.436;2023-02-14T07:00:40;62.95;;;40.08;;
77625;SDS011;66794;43.764;10.436;2023-02-14T07:03:06;67.88;;;41.35;;
77625;SDS011;66794;43.764;10.436;2023-02-14T07:05:32;66.72;;;44.35;;
77625;SDS011;66794;43.764;10.436;2023-02-14T07:07:58;62.83;;;42.13;;
77625;SDS011;66794;43.764;10.436;2023-02-14T07:10:24;67.18;;;43.33;;
77625;SDS011;66794;43.764;10.436;2023-02-14T07:12:49;65.90;;;43.92;;
77625;SDS011;66794;43.764;10.436;2023-02-14T07:15:15;69.85;;;44.58;;
77625;SDS011;66794;43.764;10.436;2023-02-14T07:17:40;63.75;;;44.22;;
77625;SDS011;66794;43.764;10.436;2023-02-14T07:20:07;74.10;;;47.90;;
77625;SDS011;66794;43.764;10.436;2023-02-14T07:22:33;70.55;;;45.47;;
77625;SDS011;66794;43.764;10.436;2023-02-14T07:24:59;73.18;;;48.40;;
77625;SDS011;66794;43.764;10.436;2023-02-14T07:27:25;67.65;;;45.47;;
77625;SDS011;66794;43.764;10.436;2023-02-14T07:29:50;70.18;;;46.53;;
77625;SDS011;66794;43.764;10.436;2023-02-14T07:32:16;69.25;;;45.47;;
77625;SDS011;66794;43.764;10.436;2023-02-14T07:34:41;68.28;;;45.78;;
77625;SDS011;66794;43.764;10.436;2023-02-14T07:37:07;68.00;;;45.92;;
77625;SDS011;66794;43.764;10.436;2023-02-14T07:39:32;75.57;;;46.92;;
77625;SDS011;66794;43.764;10.436;2023-02-14T07:41:58;71.28;;;47.85;;
77625;SDS011;66794;43.764;10.436;2023-02-14T07:44:23;73.93;;;48.28;;
77625;SDS011;66794;43.764;10.436;2023-02-14T07:46:49;70.70;;;45.70;;
77625;SDS011;66794;43.764;10.436;2023-02-14T07:49:14;68.22;;;44.63;;
77625;SDS011;66794;43.764;10.436;2023-02-14T07:51:40;71.03;;;45.58;;
77625;SDS011;66794;43.764;10.436;2023-02-14T07:54:05;72.53;;;46.80;;
77625;SDS011;66794;43.764;10.436;2023-02-14T07:56:31;67.32;;;45.28;;
77625;SDS011;66794;43.764;10.436;2023-02-14T07:58:56;67.72;;;46.28;;
77625;SDS011;66794;43.764;10.436;2023-02-14T08:01:22;70.90;;;44.28;;
77625;SDS011;66794;43.764;10.436;2023-02-14T08:03:49;65.05;;;45.13;;
77625;SDS011;66794;43.764;10.436;2023-02-14T08:06:17;68.03;;;46.00;;
77625;SDS011;66794;43.764;10.436;2023-02-14T08:08:43;70.78;;;46.40;;
77625;SDS011;66794;43.764;10.436;2023-02-14T08:11:10;68.07;;;46.58;;
77625;SDS011;66794;43.764;10.436;2023-02-14T08:13:35;62.35;;;45.42;;
77625;SDS011;66794;43.764;10.436;2023-02-14T08:16:01;63.17;;;45.78;;
77625;SDS011;66794;43.764;10.436;2023-02-14T08:18:32;67.32;;;46.20;;
77625;SDS011;66794;43.764;10.436;2023-02-14T08:21:00;77.32;;;47.53;;
77625;SDS011;66794;43.764;10.436;2023-02-14T08:23:27;70.43;;;49.05;;
77625;SDS011;66794;43.764;10.436;2023-02-14T08:25:52;69.75;;;47.80;;
77625;SDS011;66794;43.764;10.436;2023-02-14T08:28:18;66.63;;;46.88;;
77625;SDS011;66794;43.764;10.436;2023-02-14T08:30:44;70.38;;;46.75;;
77625;SDS011;66794;43.764;10.436;2023-02-14T08:33:11;68.40;;;46.05;;
77625;SDS011;66794;43.764;10.436;2023-02-14T08:35:36;70.25;;;47.60;;
77625;SDS011;66794;43.764;10.436;2023-02-14T08:38:03;63.95;;;45.33;;
77625;SDS011;66794;43.764;10.436;2023-02-14T08:40:29;66.93;;;46.53;;
77625;SDS011;66794;43.764;10.436;2023-02-14T08:42:54;64.55;;;44.85;;
77625;SDS011;66794;43.764;10.436;2023-02-14T08:45:20;66.05;;;45.45;;
77625;SDS011;66794;43.764;10.436;2023-02-14T08:47:47;67.57;;;46.47;;
77625;SDS011;66794;43.764;10.436;2023-02-14T08:50:16;64.95;;;45.85;;
77625;SDS011;66794;43.764;10.436;2023-02-14T08:52:46;67.40;;;45.88;;
77625;SDS011;66794;43.764;10.436;2023-02-14T08:55:12;66.93;;;45.80;;
77625;SDS011;66794;43.764;10.436;2023-02-14T08:57:38;60.95;;;43.47;;
77625;SDS011;66794;43.764;10.436;2023-02-14T09:00:04;64.32;;;44.17;;
77625;SDS011;66794;43.764;10.436;2023-02-14T09:02:32;68.20;;;44.88;;
77625;SDS011;66794;43.764;10.436;2023-02-14T09:04:58;62.35;;;43.58;;
77625;SDS011;66794;43.764;10.436;2023-02-14T09:07:25;63.20;;;43.22;;
77625;SDS011;66794;43.764;10.436;2023-02-14T09:09:50;64.85;;;45.83;;
77625;SDS011;66794;43.764;10.436;2023-02-14T09:12:15;66.68;;;46.58;;
77625;SDS011;66794;43.764;10.436;2023-02-14T09:14:42;67.05;;;45.60;;
77625;SDS011;66794;43.764;10.436;2023-02-14T09:17:08;69.03;;;48.05;;
77625;SDS011;66794;43.764;10.436;2023-02-14T09:19:35;66.38;;;47.40;;
77625;SDS011;66794;43.764;10.436;2023-02-14T09:22:02;57.00;;;41.30;;
77625;SDS011;66794;43.764;10.436;2023-02-14T09:24:28;59.83;;;40.08;;
77625;SDS011;66794;43.764;10.436;2023-02-14T09:26:55;62.33;;;43.25;;
77625;SDS011;66794;43.764;10.436;2023-02-14T09:29:24;57.33;;;41.15;;
77625;SDS011;66794;43.764;10.436;2023-02-14T09:31:56;56.78;;;40.55;;
77625;SDS011;66794;43.764;10.436;2023-02-14T09:34:24;55.17;;;41.10;;
77625;SDS011;66794;43.764;10.436;2023-02-14T09:36:51;57.13;;;40.10;;
77625;SDS011;66794;43.764;10.436;2023-02-14T09:39:17;52.85;;;38.00;;
77625;SDS011;66794;43.764;10.436;2023-02-14T09:41:48;46.05;;;36.05;;
77625;SDS011;66794;43.764;10.436;2023-02-14T09:44:33;52.35;;;38.35;;
77625;SDS011;66794;43.764;10.436;2023-02-14T09:50:09;50.97;;;37.97;;
77625;SDS011;66794;43.764;10.436;2023-02-14T09:52:42;52.17;;;37.00;;
77625;SDS011;66794;43.764;10.436;2023-02-14T09:55:14;48.53;;;37.80;;
77625;SDS011;66794;43.764;10.436;2023-02-14T09:57:48;51.58;;;38.45;;
77625;SDS011;66794;43.764;10.436;2023-02-14T10:00:37;51.30;;;38.90;;
77625;SDS011;66794;43.764;10.436;2023-02-14T10:08:40;43.83;;;33.60;;
77625;SDS011;66794;43.764;10.436;2023-02-14T10:11:14;44.40;;;33.60;;
77625;SDS011;66794;43.764;10.436;2023-02-14T10:16:25;48.83;;;35.67;;
77625;SDS011;66794;43.764;10.436;2023-02-14T10:22:11;47.92;;;35.10;;
77625;SDS011;66794;43.764;10.436;2023-02-14T10:27:40;48.10;;;34.95;;
77625;SDS011;66794;43.764;10.436;2023-02-14T10:30:11;44.67;;;35.08;;
77625;SDS011;66794;43.764;10.436;2023-02-14T10:32:39;48.53;;;34.15;;
77625;SDS011;66794;43.764;10.436;2023-02-14T10:35:14;43.63;;;32.10;;
77625;SDS011;66794;43.764;10.436;2023-02-14T10:41:02;35.65;;;28.27;;
77625;SDS011;66794;43.764;10.436;2023-02-14T10:51:43;44.47;;;33.03;;
77625;SDS011;66794;43.764;10.436;2023-02-14T10:54:28;45.00;;;32.13;;
77625;SDS011;66794;43.764;10.436;2023-02-14T10:59:56;42.97;;;31.20;;
77625;SDS011;66794;43.764;10.436;2023-02-14T11:02:31;39.50;;;30.58;;
77625;SDS011;66794;43.764;10.436;2023-02-14T11:05:01;42.20;;;30.08;;
77625;SDS011;66794;43.764;10.436;2023-02-14T11:07:29;35.03;;;26.48;;
77625;SDS011;66794;43.764;10.436;2023-02-14T11:09:55;38.60;;;29.15;;
77625;SDS011;66794;43.764;10.436;2023-02-14T11:12:38;38.95;;;28.67;;
77625;SDS011;66794;43.764;10.436;2023-02-14T11:20:25;37.92;;;29.42;;
77625;SDS011;66794;43.764;10.436;2023-02-14T11:22:54;40.63;;;31.10;;
77625;SDS011;66794;43.764;10.436;2023-02-14T11:27:46;39.60;;;29.55;;
77625;SDS011;66794;43.764;10.436;2023-02-14T11:30:21;40.78;;;31.70;;
77625;SDS011;66794;43.764;10.436;2023-02-14T11:32:50;44.13;;;33.47;;
77625;SDS011;66794;43.764;10.436;2023-02-14T11:35:19;43.75;;;31.40;;
77625;SDS011;66794;43.764;10.436;2023-02-14T11:37:51;55.50;;;42.05;;
77625;SDS011;66794;43.764;10.436;2023-02-14T11:45:38;45.50;;;32.85;;
77625;SDS011;66794;43.764;10.436;2023-02-14T11:48:16;43.28;;;29.13;;
77625;SDS011;66794;43.764;10.436;2023-02-14T11:50:54;40.60;;;29.35;;
77625;SDS011;66794;43.764;10.436;2023-02-14T11:53:25;40.97;;;29.27;;
77625;SDS011;66794;43.764;10.436;2023-02-14T11:55:54;49.53;;;35.10;;
77625;SDS011;66794;43.764;10.436;2023-02-14T12:01:33;41.25;;;30.33;;
77625;SDS011;66794;43.764;10.436;2023-02-14T12:04:02;32.80;;;25.33;;
77625;SDS011;66794;43.764;10.436;2023-02-14T12:06:32;38.72;;;28.13;;
77625;SDS011;66794;43.764;10.436;2023-02-14T12:09:10;36.45;;;27.67;;
77625;SDS011;66794;43.764;10.436;2023-02-14T12:11:56;32.70;;;22.85;;
77625;SDS011;66794;43.764;10.436;2023-02-14T12:14:25;28.13;;;19.55;;
77625;SDS011;66794;43.764;10.436;2023-02-14T12:16:59;27.40;;;15.93;;
77625;SDS011;66794;43.764;10.436;2023-02-14T12:19:48;18.23;;;12.75;;
77625;SDS011;66794;43.764;10.436;2023-02-14T12:22:21;20.35;;;14.95;;
77625;SDS011;66794;43.764;10.436;2023-02-14T12:24:58;15.68;;;12.82;;
77625;SDS011;66794;43.764;10.436;2023-02-14T12:27:42;18.88;;;13.18;;
77625;SDS011;66794;43.764;10.436;2023-02-14T12:32:47;18.25;;;12.45;;
77625;SDS011;66794;43.764;10.436;2023-02-14T12:35:19;14.75;;;11.23;;
77625;SDS011;66794;43.764;10.436;2023-02-14T13:04:38;20.52;;;13.27;;
77625;SDS011;66794;43.764;10.436;2023-02-14T13:07:25;18.85;;;14.35;;
77625;SDS011;66794;43.764;10.436;2023-02-14T13:12:57;21.17;;;15.70;;
77625;SDS011;66794;43.764;10.436;2023-02-14T13:15:44;20.80;;;15.20;;
77625;SDS011;66794;43.764;10.436;2023-02-14T13:18:17;15.98;;;11.60;;
77625;SDS011;66794;43.764;10.436;2023-02-14T13:21:07;18.73;;;13.43;;
77625;SDS011;66794;43.764;10.436;2023-02-14T13:28:47;15.77;;;12.23;;
77625;SDS011;66794;43.764;10.436;2023-02-14T13:31:17;19.23;;;14.27;;
77625;SDS011;66794;43.764;10.436;2023-02-14T13:33:47;18.60;;;13.20;;
77625;SDS011;66794;43.764;10.436;2023-02-14T13:36:16;15.15;;;12.80;;
77625;SDS011;66794;43.764;10.436;2023-02-14T13:38:49;20.15;;;13.35;;
77625;SDS011;66794;43.764;10.436;2023-02-14T13:46:09;17.67;;;13.43;;
77625;SDS011;66794;43.764;10.436;2023-02-14T13:48:35;19.00;;;13.68;;
77625;SDS011;66794;43.764;10.436;2023-02-14T13:51:03;21.02;;;14.43;;
77625;SDS011;66794;43.764;10.436;2023-02-14T13:58:53;18.48;;;12.10;;
77625;SDS011;66794;43.764;10.436;2023-02-14T14:04:38;16.63;;;12.50;;
77625;SDS011;66794;43.764;10.436;2023-02-14T14:22:46;14.75;;;11.88;;
77625;SDS011;66794;43.764;10.436;2023-02-14T14:25:30;17.67;;;12.20;;
77625;SDS011;66794;43.764;10.436;2023-02-14T14:27:57;25.58;;;14.02;;
77625;SDS011;66794;43.764;10.436;2023-02-14T14:30:31;18.08;;;12.70;;
77625;SDS011;66794;43.764;10.436;2023-02-14T14:33:23;18.73;;;12.35;;
77625;SDS011;66794;43.764;10.436;2023-02-14T14:35:59;16.75;;;12.75;;
77625;SDS011;66794;43.764;10.436;2023-02-14T14:38:34;21.63;;;14.20;;
77625;SDS011;66794;43.764;10.436;2023-02-14T14:41:11;17.15;;;12.02;;
77625;SDS011;66794;43.764;10.436;2023-02-14T14:43:37;16.52;;;11.93;;
77625;SDS011;66794;43.764;10.436;2023-02-14T14:46:06;17.70;;;12.10;;
77625;SDS011;66794;43.764;10.436;2023-02-14T14:48:45;20.05;;;14.95;;
77625;SDS011;66794;43.764;10.436;2023-02-14T14:53:59;15.43;;;11.60;;
77625;SDS011;66794;43.764;10.436;2023-02-14T14:56:28;19.85;;;12.30;;
77625;SDS011;66794;43.764;10.436;2023-02-14T14:58:57;17.48;;;12.13;;
77625;SDS011;66794;43.764;10.436;2023-02-14T15:01:43;14.50;;;10.70;;
77625;SDS011;66794;43.764;10.436;2023-02-14T15:06:38;18.95;;;11.50;;
77625;SDS011;66794;43.764;10.436;2023-02-14T15:12:00;16.05;;;11.35;;
77625;SDS011;66794;43.764;10.436;2023-02-14T15:14:46;16.65;;;12.10;;
77625;SDS011;66794;43.764;10.436;2023-02-14T15:17:22;18.05;;;13.02;;
77625;SDS011;66794;43.764;10.436;2023-02-14T15:19:51;14.88;;;11.00;;
77625;SDS011;66794;43.764;10.436;2023-02-14T15:22:21;18.80;;;13.73;;
77625;SDS011;66794;43.764;10.436;2023-02-14T15:24:50;19.42;;;14.20;;
77625;SDS011;66794;43.764;10.436;2023-02-14T15:27:23;22.85;;;15.25;;
77625;SDS011;66794;43.764;10.436;2023-02-14T15:30:00;21.25;;;16.60;;
77625;SDS011;66794;43.764;10.436;2023-02-14T15:32:31;24.50;;;17.58;;
77625;SDS011;66794;43.764;10.436;2023-02-14T15:35:02;21.85;;;18.02;;
77625;SDS011;66794;43.764;10.436;2023-02-14T15:37:30;24.13;;;17.88;;
77625;SDS011;66794;43.764;10.436;2023-02-14T15:39:55;24.52;;;18.38;;
77625;SDS011;66794;43.764;10.436;2023-02-14T15:42:26;25.05;;;18.60;;
77625;SDS011;66794;43.764;10.436;2023-02-14T15:47:54;22.70;;;17.60;;
77625;SDS011;66794;43.764;10.436;2023-02-14T15:50:43;26.83;;;18.52;;
77625;SDS011;66794;43.764;10.436;2023-02-14T15:53:37;24.00;;;17.48;;
77625;SDS011;66794;43.764;10.436;2023-02-14T15:56:17;27.70;;;18.67;;
77625;SDS011;66794;43.764;10.436;2023-02-14T15:58:46;22.50;;;18.50;;
77625;SDS011;66794;43.764;10.436;2023-02-14T16:01:13;22.88;;;18.77;;
77625;SDS011;66794;43.764;10.436;2023-02-14T16:03:47;23.67;;;17.13;;
77625;SDS011;66794;43.764;10.436;2023-02-14T16:06:28;20.85;;;13.32;;
77625;SDS011;66794;43.764;10.436;2023-02-14T16:08:58;24.02;;;19.05;;
77625;SDS011;66794;43.764;10.436;2023-02-14T16:11:29;21.02;;;18.17;;
77625;SDS011;66794;43.764;10.436;2023-02-14T16:13:55;22.35;;;17.70;;
77625;SDS011;66794;43.764;10.436;2023-02-14T16:16:20;21.83;;;18.00;;
77625;SDS011;66794;43.764;10.436;2023-02-14T16:18:47;24.58;;;20.67;;
77625;SDS011;66794;43.764;10.436;2023-02-14T16:21:20;26.55;;;21.58;;
77625;SDS011;66794;43.764;10.436;2023-02-14T16:24:10;31.05;;;22.88;;
77625;SDS011;66794;43.764;10.436;2023-02-14T16:26:36;31.60;;;24.25;;
77625;SDS011;66794;43.764;10.436;2023-02-14T16:29:10;30.95;;;23.70;;
77625;SDS011;66794;43.764;10.436;2023-02-14T16:31:37;34.17;;;24.95;;
77625;SDS011;66794;43.764;10.436;2023-02-14T16:34:08;34.83;;;25.52;;
77625;SDS011;66794;43.764;10.436;2023-02-14T16:36:36;36.00;;;26.67;;
77625;SDS011;66794;43.764;10.436;2023-02-14T16:39:02;37.97;;;27.42;;
77625;SDS011;66794;43.764;10.436;2023-02-14T16:41:29;34.78;;;27.60;;
77625;SDS011;66794;43.764;10.436;2023-02-14T16:43:57;34.95;;;27.88;;
77625;SDS011;66794;43.764;10.436;2023-02-14T16:46:30;39.90;;;29.02;;
77625;SDS011;66794;43.764;10.436;2023-02-14T16:48:56;36.05;;;28.27;;
77625;SDS011;66794;43.764;10.436;2023-02-14T16:51:23;35.97;;;27.27;;
77625;SDS011;66794;43.764;10.436;2023-02-14T16:53:51;38.30;;;29.20;;
77625;SDS011;66794;43.764;10.436;2023-02-14T16:58:47;38.42;;;30.50;;
77625;SDS011;66794;43.764;10.436;2023-02-14T17:01:12;40.63;;;29.65;;
77625;SDS011;66794;43.764;10.436;2023-02-14T17:03:38;39.67;;;28.17;;
77625;SDS011;66794;43.764;10.436;2023-02-14T17:06:06;40.70;;;28.83;;
77625;SDS011;66794;43.764;10.436;2023-02-14T17:08:35;35.92;;;27.63;;
77625;SDS011;66794;43.764;10.436;2023-02-14T17:11:02;39.75;;;28.80;;